createdAt,value
2018-12-20T00:00:06.421Z,21.40
2018-12-20T00:02:34.942Z,20.80
2018-12-20T00:05:05.899Z,23.23
2018-12-20T00:07:34.428Z,17.87
2018-12-20T00:10:04.370Z,17.50
2018-12-20T00:12:33.051Z,19.80
2018-12-20T00:15:02.762Z,20.47
2018-12-20T00:17:36.608Z,18.43
2018-12-20T00:20:05.658Z,23.97
2018-12-20T00:22:34.306Z,17.57
2018-12-20T00:25:04.711Z,20.53
2018-12-20T00:27:33.216Z,16.40
2018-12-20T00:30:02.712Z,19.07
2018-12-20T00:32:31.203Z,21.27
2018-12-20T00:34:59.698Z,20.03
2018-12-20T00:37:28.322Z,18.07
2018-12-20T00:39:56.815Z,19.00
2018-12-20T00:42:25.423Z,17.93
2018-12-20T00:44:54.096Z,14.70
2018-12-20T00:47:26.084Z,16.20
2018-12-20T00:49:54.912Z,17.67
2018-12-20T00:52:23.404Z,15.97
2018-12-20T00:54:52.411Z,17.27
2018-12-20T00:57:21.289Z,17.20
2018-12-20T00:59:49.861Z,14.40
2018-12-20T01:02:18.343Z,21.17
2018-12-20T01:04:46.924Z,12.53
2018-12-20T01:07:15.423Z,18.13
2018-12-20T01:09:44.205Z,15.10
2018-12-20T01:12:13.194Z,17.40
2018-12-20T01:14:45.352Z,17.70
2018-12-20T01:17:12.407Z,19.50
2018-12-20T01:19:41.152Z,16.77
2018-12-20T01:22:09.952Z,14.83
2018-12-20T01:24:38.579Z,18.37
2018-12-20T01:27:07.406Z,14.60
2018-12-20T01:29:35.873Z,16.23
2018-12-20T01:32:05.753Z,14.13
2018-12-20T01:34:34.527Z,19.50
2018-12-20T01:37:04.544Z,18.33
2018-12-20T01:39:33.299Z,13.80
2018-12-20T01:42:03.085Z,15.17
2018-12-20T01:44:31.770Z,14.87
2018-12-20T01:47:00.436Z,16.63
2018-12-20T01:49:29.127Z,18.23
2018-12-20T01:51:58.299Z,15.93
2018-12-20T01:54:27.184Z,17.03
2018-12-20T01:56:55.887Z,16.83
2018-12-20T01:59:24.625Z,17.13
2018-12-20T02:01:53.276Z,15.10
2018-12-20T02:04:21.990Z,15.30
2018-12-20T02:06:50.671Z,16.27
2018-12-20T02:09:19.373Z,15.67
2018-12-20T02:11:47.978Z,18.17
2018-12-20T02:14:16.658Z,14.40
2018-12-20T02:16:45.248Z,14.33
2018-12-20T02:19:15.635Z,20.47
2018-12-20T02:21:44.666Z,17.97
2018-12-20T02:24:13.264Z,16.83
2018-12-20T02:26:41.764Z,15.70
2018-12-20T02:29:10.776Z,19.07
2018-12-20T02:31:39.286Z,16.20
2018-12-20T02:34:07.872Z,17.97
2018-12-20T02:36:36.406Z,16.83
2018-12-20T02:39:08.033Z,16.87
2018-12-20T02:41:37.727Z,16.70
2018-12-20T02:44:06.301Z,16.20
2018-12-20T02:46:35.020Z,15.37
2018-12-20T02:49:05.712Z,15.73
2018-12-20T02:51:34.313Z,17.10
2018-12-20T02:54:04.505Z,17.27
2018-12-20T02:56:33.146Z,16.17
2018-12-20T02:59:03.265Z,13.83
2018-12-20T03:01:31.863Z,15.27
2018-12-20T03:04:00.953Z,17.07
2018-12-20T03:06:30.095Z,18.17
2018-12-20T03:08:58.639Z,18.73
2018-12-20T03:11:27.355Z,16.17
2018-12-20T03:13:55.919Z,19.53
2018-12-20T03:16:24.509Z,15.50
2018-12-20T03:18:53.189Z,13.13
2018-12-20T03:21:22.770Z,16.90
2018-12-20T03:23:51.238Z,18.03
2018-12-20T03:26:19.793Z,13.27
2018-12-20T03:28:48.414Z,16.60
2018-12-20T03:31:17.114Z,14.87
2018-12-20T03:33:46.077Z,14.10
2018-12-20T03:36:14.809Z,13.33
2018-12-20T03:38:43.478Z,15.13
2018-12-20T03:41:12.080Z,15.13
2018-12-20T03:43:40.619Z,16.47
2018-12-20T03:46:09.422Z,19.87
2018-12-20T03:48:38.639Z,16.77
2018-12-20T03:51:07.226Z,16.33
2018-12-20T03:53:35.941Z,15.67
2018-12-20T03:56:05.207Z,15.47
2018-12-20T03:58:33.867Z,15.37
2018-12-20T04:01:04.307Z,13.40
2018-12-20T04:03:33.125Z,15.60
2018-12-20T04:06:03.260Z,14.57
2018-12-20T04:08:31.972Z,14.23
2018-12-20T04:11:00.653Z,12.87
2018-12-20T04:13:29.251Z,12.70
2018-12-20T04:15:58.119Z,10.53
2018-12-20T04:18:26.745Z,12.57
2018-12-20T04:20:55.340Z,14.53
2018-12-20T04:23:26.131Z,11.10
2018-12-20T04:25:54.674Z,9.93
2018-12-20T04:28:23.233Z,12.07
2018-12-20T04:30:52.035Z,9.57
2018-12-20T04:33:20.644Z,10.57
2018-12-20T04:35:49.203Z,10.07
2018-12-20T04:38:17.849Z,12.80
2018-12-20T04:40:46.948Z,11.43
2018-12-20T04:43:15.692Z,11.63
2018-12-20T04:45:46.847Z,10.27
2018-12-20T04:48:15.892Z,9.90
2018-12-20T04:50:44.647Z,10.30
2018-12-20T04:53:13.112Z,13.37
2018-12-20T04:55:41.641Z,11.17
2018-12-20T04:58:10.184Z,13.33
2018-12-20T05:00:40.585Z,12.90
2018-12-20T05:03:09.543Z,11.40
2018-12-20T05:05:38.144Z,11.17
2018-12-20T05:08:06.672Z,12.50
2018-12-20T05:10:35.240Z,9.40
2018-12-20T05:13:05.507Z,10.97
2018-12-20T05:15:34.028Z,9.53
2018-12-20T05:18:03.915Z,11.30
2018-12-20T05:20:32.737Z,11.50
2018-12-20T05:23:02.816Z,11.83
2018-12-20T05:25:32.487Z,11.83
2018-12-20T05:28:03.160Z,10.57
2018-12-20T05:30:31.698Z,9.83
2018-12-20T05:33:00.203Z,9.10
2018-12-20T05:35:28.824Z,12.40
2018-12-20T05:37:57.616Z,11.47
2018-12-20T05:40:26.608Z,12.13
2018-12-20T05:42:55.099Z,12.23
2018-12-20T05:45:23.583Z,13.53
2018-12-20T05:47:52.430Z,11.23
2018-12-20T05:50:21.277Z,11.67
2018-12-20T05:52:50.221Z,15.43
2018-12-20T05:55:19.046Z,12.77
2018-12-20T05:57:47.718Z,10.60
2018-12-20T06:00:16.792Z,13.07
2018-12-20T06:02:45.536Z,11.40
2018-12-20T06:05:14.432Z,11.07
2018-12-20T06:07:43.256Z,13.00
2018-12-20T06:10:11.984Z,14.30
2018-12-20T06:12:40.573Z,13.07
2018-12-20T06:15:09.380Z,12.90
2018-12-20T06:17:37.940Z,13.60
2018-12-20T06:20:06.617Z,15.87
2018-12-20T06:22:35.193Z,13.67
2018-12-20T06:25:06.140Z,13.93
2018-12-20T06:27:34.834Z,12.77
2018-12-20T06:30:05.675Z,18.40
2018-12-20T06:32:34.238Z,15.27
2018-12-20T06:35:04.521Z,13.50
2018-12-20T06:37:33.066Z,14.43
2018-12-20T06:40:02.801Z,12.57
2018-12-20T06:42:32.149Z,13.30
2018-12-20T06:45:00.651Z,15.73
2018-12-20T06:47:29.169Z,15.27
2018-12-20T06:49:57.671Z,14.30
2018-12-20T06:52:27.712Z,14.33
2018-12-20T06:54:56.405Z,13.93
2018-12-20T06:57:24.877Z,14.37
2018-12-20T06:59:53.349Z,18.00
2018-12-20T07:02:21.867Z,16.33
2018-12-20T07:04:50.364Z,13.10
2018-12-20T07:07:18.859Z,15.23
2018-12-20T07:09:47.388Z,14.60
2018-12-20T07:12:15.877Z,13.90
2018-12-20T07:14:44.422Z,13.73
2018-12-20T07:17:13.025Z,13.53
2018-12-20T07:19:41.510Z,15.77
2018-12-20T07:22:10.102Z,14.07
2018-12-20T07:24:38.628Z,16.20
2018-12-20T07:27:07.865Z,15.80
2018-12-20T07:29:37.403Z,15.77
2018-12-20T07:32:06.022Z,15.90
2018-12-20T07:34:34.549Z,14.47
2018-12-20T07:37:04.699Z,12.90
2018-12-20T07:39:33.261Z,14.70
2018-12-20T07:42:02.815Z,14.20
2018-12-20T07:44:31.322Z,15.87
2018-12-20T07:46:59.838Z,12.07
2018-12-20T07:49:28.566Z,15.93
2018-12-20T07:51:57.111Z,12.67
2018-12-20T07:54:25.712Z,13.80
2018-12-20T07:56:54.606Z,12.83
2018-12-20T07:59:25.041Z,13.03
2018-12-20T08:01:53.523Z,13.77
2018-12-20T08:04:22.051Z,16.30
2018-12-20T08:06:50.514Z,13.40
2018-12-20T08:09:19.105Z,11.13
2018-12-20T08:11:47.674Z,12.17
2018-12-20T08:14:16.277Z,14.03
2018-12-20T08:16:46.169Z,13.10
2018-12-20T08:19:15.002Z,11.77
2018-12-20T08:21:43.558Z,12.17
2018-12-20T08:24:12.108Z,12.37
2018-12-20T08:26:40.758Z,12.97
2018-12-20T08:29:09.272Z,11.40
2018-12-20T08:31:37.745Z,13.77
2018-12-20T08:34:06.255Z,14.10
2018-12-20T08:36:34.838Z,14.57
2018-12-20T08:39:07.064Z,11.63
2018-12-20T08:41:37.141Z,12.43
2018-12-20T08:44:05.603Z,14.63
2018-12-20T08:46:34.118Z,13.27
2018-12-20T08:49:03.789Z,12.03
2018-12-20T08:51:32.303Z,12.33
2018-12-20T08:54:00.765Z,12.63
2018-12-20T08:56:29.365Z,9.23
2018-12-20T08:58:57.848Z,11.13
2018-12-20T09:01:26.387Z,11.07
2018-12-20T09:03:54.888Z,10.67
2018-12-20T09:06:23.512Z,12.67
2018-12-20T09:08:52.076Z,10.70
2018-12-20T09:11:20.585Z,10.73
2018-12-20T09:13:49.497Z,11.23
2018-12-20T09:16:21.953Z,9.57
2018-12-20T09:18:50.593Z,11.07
2018-12-20T09:21:19.160Z,9.97
2018-12-20T09:23:47.725Z,9.27
2018-12-20T09:26:16.527Z,8.83
2018-12-20T09:28:45.000Z,10.30
2018-12-20T09:31:13.583Z,10.80
2018-12-20T09:33:42.084Z,11.40
2018-12-20T09:36:10.723Z,10.23
2018-12-20T09:38:39.613Z,9.37
2018-12-20T09:41:08.224Z,10.90
2018-12-20T09:43:36.804Z,12.83
2018-12-20T09:46:05.751Z,11.07
2018-12-20T09:48:34.247Z,9.47
2018-12-20T09:51:03.929Z,8.27
2018-12-20T09:53:32.613Z,9.07
2018-12-20T09:56:02.964Z,9.67
2018-12-20T09:58:31.502Z,9.37
2018-12-20T10:01:00.062Z,8.87
2018-12-20T10:03:28.576Z,10.53
2018-12-20T10:05:57.130Z,9.17
2018-12-20T10:08:25.785Z,11.27
2018-12-20T10:10:54.734Z,9.23
2018-12-20T10:13:23.306Z,12.43
2018-12-20T10:15:51.855Z,10.37
2018-12-20T10:18:20.526Z,11.13
2018-12-20T10:20:49.109Z,9.77
2018-12-20T10:23:17.828Z,9.87
2018-12-20T10:25:46.337Z,8.37
2018-12-20T10:28:14.828Z,9.83
2018-12-20T10:30:43.443Z,8.00
2018-12-20T10:33:12.313Z,10.77
2018-12-20T10:35:40.903Z,9.77
2018-12-20T10:38:09.531Z,9.97
2018-12-20T10:40:38.089Z,10.43
2018-12-20T10:43:06.650Z,11.07
2018-12-20T10:45:37.781Z,10.23
2018-12-20T10:48:06.300Z,10.37
2018-12-20T10:50:34.876Z,6.87
2018-12-20T10:53:07.870Z,9.27
2018-12-20T10:55:36.438Z,7.73
2018-12-20T10:58:05.275Z,10.90
2018-12-20T11:00:39.241Z,10.70
2018-12-20T11:03:12.944Z,8.03
2018-12-20T11:05:47.201Z,7.77
2018-12-20T11:08:21.084Z,10.67
2018-12-20T11:10:51.698Z,10.30
2018-12-20T11:13:25.936Z,10.20
2018-12-20T11:15:54.456Z,10.27
2018-12-20T11:18:23.462Z,8.07
2018-12-20T11:20:51.946Z,8.17
2018-12-20T11:23:20.495Z,11.97
2018-12-20T11:25:49.103Z,9.83
2018-12-20T11:28:17.628Z,7.23
2018-12-20T11:30:46.169Z,12.57
2018-12-20T11:33:14.651Z,9.53
2018-12-20T11:35:43.154Z,8.67
2018-12-20T11:38:11.874Z,11.00
2018-12-20T11:40:40.975Z,9.40
2018-12-20T11:43:09.824Z,10.70
2018-12-20T11:51:16.077Z,8.43
2018-12-20T11:53:44.584Z,10.10
2018-12-20T11:56:13.082Z,9.43
2018-12-20T11:58:41.711Z,11.93
2018-12-20T12:01:10.322Z,7.87
2018-12-20T12:03:38.855Z,7.23
2018-12-20T12:06:07.423Z,11.77
2018-12-20T12:08:35.995Z,11.63
2018-12-20T12:11:04.852Z,10.43
2018-12-20T12:13:33.470Z,8.70
2018-12-20T12:16:03.693Z,11.90
2018-12-20T12:18:32.233Z,7.70
2018-12-20T12:21:00.778Z,9.57
2018-12-20T12:23:29.931Z,10.10
2018-12-20T12:25:58.401Z,10.67
2018-12-20T12:28:27.246Z,11.73
2018-12-20T12:30:56.011Z,11.77
2018-12-20T12:33:24.640Z,8.80
2018-12-20T12:35:53.251Z,6.73
2018-12-20T12:38:21.743Z,11.83
2018-12-20T12:40:50.257Z,9.23
2018-12-20T12:43:18.755Z,9.13
2018-12-20T12:45:47.563Z,9.50
2018-12-20T12:48:16.375Z,12.23
2018-12-20T12:50:44.889Z,7.20
2018-12-20T12:53:13.383Z,11.40
2018-12-20T12:55:41.890Z,12.27
2018-12-20T12:58:10.581Z,8.40
2018-12-20T13:00:40.190Z,10.30
2018-12-20T13:03:09.282Z,9.27
2018-12-20T13:05:37.781Z,8.10
2018-12-20T13:08:06.260Z,9.03
2018-12-20T13:10:34.788Z,8.50
2018-12-20T13:13:04.484Z,9.90
2018-12-20T13:15:33.766Z,6.53
2018-12-20T13:18:04.613Z,8.73
2018-12-20T13:20:35.436Z,9.50
2018-12-20T13:23:05.044Z,9.83
2018-12-20T13:25:33.644Z,7.93
2018-12-20T13:28:03.770Z,8.10
2018-12-20T13:30:32.245Z,6.53
2018-12-20T13:33:00.735Z,7.77
2018-12-20T13:35:29.330Z,11.53
2018-12-20T13:37:57.795Z,9.37
2018-12-20T13:40:26.324Z,9.50
2018-12-20T13:42:54.867Z,10.77
2018-12-20T13:45:23.539Z,7.03
2018-12-20T13:47:53.618Z,11.13
2018-12-20T13:50:22.104Z,10.93
2018-12-20T13:52:50.862Z,7.70
2018-12-20T13:55:19.539Z,10.07
2018-12-20T13:57:48.038Z,7.53
2018-12-20T14:00:16.516Z,9.60
2018-12-20T14:02:45.283Z,11.03
2018-12-20T14:05:13.779Z,11.37
2018-12-20T14:07:42.820Z,9.43
2018-12-20T14:10:11.294Z,11.10
2018-12-20T14:12:39.856Z,8.50
2018-12-20T14:15:08.920Z,9.23
2018-12-20T14:17:37.404Z,10.57
2018-12-20T14:20:07.132Z,10.70
2018-12-20T14:22:35.645Z,10.17
2018-12-20T14:25:05.751Z,11.03
2018-12-20T14:27:34.207Z,14.27
2018-12-20T14:30:04.131Z,11.23
2018-12-20T14:32:32.906Z,12.53
2018-12-20T14:35:02.709Z,10.67
2018-12-20T14:37:31.168Z,11.00
2018-12-20T14:39:59.650Z,11.17
2018-12-20T14:42:28.130Z,9.23
2018-12-20T14:44:57.078Z,11.30
2018-12-20T14:47:25.591Z,7.80
2018-12-20T14:49:54.048Z,9.70
2018-12-20T14:52:22.546Z,11.53
2018-12-20T14:54:51.461Z,10.80
2018-12-20T14:57:20.040Z,10.97
2018-12-20T14:59:48.589Z,9.80
2018-12-20T15:02:17.181Z,7.83
2018-12-20T15:04:45.667Z,8.63
2018-12-20T15:07:14.154Z,9.63
2018-12-20T15:09:42.624Z,10.53
2018-12-20T15:12:11.169Z,9.37
2018-12-20T15:14:40.154Z,13.00
2018-12-20T15:17:08.732Z,9.07
2018-12-20T15:19:37.442Z,9.97
2018-12-20T15:22:05.936Z,8.03
2018-12-20T15:24:34.495Z,9.13
2018-12-20T15:27:04.984Z,11.30
2018-12-20T15:29:33.470Z,8.43
2018-12-20T15:32:02.722Z,10.17
2018-12-20T15:34:31.507Z,10.67
2018-12-20T15:36:59.954Z,11.57
2018-12-20T15:39:29.933Z,11.43
2018-12-20T15:41:58.570Z,11.33
2018-12-20T15:44:27.047Z,11.73
2018-12-20T15:46:55.552Z,10.63
2018-12-20T15:49:24.061Z,12.43
2018-12-20T15:51:52.551Z,14.77
2018-12-20T15:54:21.326Z,14.93
2018-12-20T15:56:49.789Z,14.00
2018-12-20T15:59:18.315Z,13.50
2018-12-20T16:01:46.946Z,14.17
2018-12-20T16:04:15.592Z,13.93
2018-12-20T16:06:44.238Z,17.07
2018-12-20T16:09:12.895Z,16.00
2018-12-20T16:11:41.520Z,14.57
2018-12-20T16:14:10.064Z,17.73
2018-12-20T16:16:44.335Z,17.53
2018-12-20T16:19:13.370Z,15.17
2018-12-20T16:21:41.870Z,15.43
2018-12-20T16:24:10.407Z,19.80
2018-12-20T16:26:38.987Z,15.23
2018-12-20T16:29:07.781Z,13.43
2018-12-20T16:31:36.290Z,14.83
2018-12-20T16:34:05.390Z,16.03
2018-12-20T16:36:34.010Z,19.17
2018-12-20T16:39:04.995Z,18.00
2018-12-20T16:41:34.485Z,16.20
2018-12-20T16:44:04.620Z,19.80
2018-12-20T16:46:33.102Z,19.10
2018-12-20T16:49:02.756Z,16.00
2018-12-20T16:51:31.250Z,16.30
2018-12-20T16:53:59.825Z,21.37
2018-12-20T16:56:28.340Z,17.57
2018-12-20T16:58:56.824Z,14.23
2018-12-20T17:01:25.412Z,19.57
2018-12-20T17:03:54.031Z,17.43
2018-12-20T17:06:22.507Z,22.70
2018-12-20T17:08:51.436Z,19.07
2018-12-20T17:11:19.933Z,17.03
2018-12-20T17:13:48.439Z,19.93
2018-12-20T17:16:17.042Z,17.00
2018-12-20T17:18:45.637Z,17.10
2018-12-20T17:21:14.131Z,19.93
2018-12-20T17:23:43.046Z,17.20
2018-12-20T17:26:11.569Z,19.53
2018-12-20T17:28:40.028Z,18.70
2018-12-20T17:31:08.544Z,18.90
2018-12-20T17:33:37.264Z,24.10
2018-12-20T17:36:06.605Z,21.43
2018-12-20T17:38:35.107Z,21.33
2018-12-20T17:41:04.815Z,18.97
2018-12-20T17:43:33.296Z,22.63
2018-12-20T17:46:02.758Z,19.83
2018-12-20T17:48:31.488Z,21.83
2018-12-20T17:51:00.001Z,19.00
2018-12-20T17:53:28.482Z,21.50
2018-12-20T17:55:57.166Z,20.27
2018-12-20T17:58:25.669Z,24.70
2018-12-20T18:00:54.141Z,23.30
2018-12-20T18:03:23.096Z,21.30
2018-12-20T18:05:51.582Z,22.57
2018-12-20T18:08:20.091Z,24.67
2018-12-20T18:10:48.614Z,25.60
2018-12-20T18:13:17.098Z,21.90
2018-12-20T18:15:45.600Z,20.13
2018-12-20T18:18:14.193Z,24.50
2018-12-20T18:20:42.856Z,25.90
2018-12-20T18:23:11.415Z,20.93
2018-12-20T18:25:39.913Z,24.07
2018-12-20T18:28:08.531Z,21.90
2018-12-20T18:30:37.045Z,24.63
2018-12-20T18:33:05.625Z,24.17
2018-12-20T18:35:34.239Z,21.00
2018-12-20T18:38:04.508Z,22.23
2018-12-20T18:40:33.032Z,19.47
2018-12-20T18:43:03.126Z,21.90
2018-12-20T18:45:31.674Z,20.97
2018-12-20T18:48:00.198Z,24.13
2018-12-20T18:50:28.736Z,20.93
2018-12-20T18:52:57.337Z,17.53
2018-12-20T18:55:25.815Z,19.80
2018-12-20T18:57:54.581Z,22.23
2018-12-20T19:00:23.148Z,24.37
2018-12-20T19:02:51.718Z,18.57
2018-12-20T19:05:20.311Z,23.37
2018-12-20T19:07:48.944Z,21.07
2018-12-20T19:10:17.791Z,21.70
2018-12-20T19:12:46.280Z,18.33
2018-12-20T19:15:14.836Z,20.73
2018-12-20T19:17:43.398Z,21.57
2018-12-20T19:20:16.153Z,18.97
2018-12-20T19:22:42.445Z,18.17
2018-12-20T19:25:10.987Z,17.70
2018-12-20T19:27:39.541Z,21.47
2018-12-20T19:30:10.132Z,22.90
2018-12-20T19:32:38.767Z,21.20
2018-12-20T19:35:07.892Z,19.60
2018-12-20T19:37:36.417Z,21.50
2018-12-20T19:40:09.397Z,18.40
2018-12-20T19:42:38.736Z,17.37
2018-12-20T19:45:07.480Z,20.73
2018-12-20T19:47:36.250Z,19.00
2018-12-20T19:50:07.798Z,16.63
2018-12-20T19:52:36.687Z,18.10
2018-12-20T19:55:06.472Z,21.10
2018-12-20T19:57:35.037Z,18.40
2018-12-20T20:00:10.636Z,22.20
2018-12-20T20:02:39.493Z,19.90
2018-12-20T20:05:09.317Z,23.43
2018-12-20T20:07:38.374Z,21.97
2018-12-20T20:10:09.486Z,19.00
2018-12-20T20:12:39.062Z,18.23
2018-12-20T20:15:16.365Z,18.73
2018-12-20T20:17:42.386Z,17.60
2018-12-20T20:20:14.103Z,18.90
2018-12-20T20:22:41.842Z,22.03
2018-12-20T20:25:10.534Z,19.07
2018-12-20T20:27:39.100Z,22.30
2018-12-20T20:30:11.023Z,23.17
2018-12-20T20:32:39.675Z,22.60
2018-12-20T20:35:08.626Z,21.33
2018-12-20T20:37:37.373Z,24.07
2018-12-20T20:40:07.897Z,18.50
2018-12-20T20:42:36.497Z,22.67
2018-12-20T20:45:06.554Z,22.73
2018-12-20T20:47:35.139Z,25.60
2018-12-20T20:50:06.971Z,21.87
2018-12-20T20:52:35.649Z,22.60
2018-12-20T20:55:07.306Z,21.40
2018-12-20T20:57:35.993Z,20.70
2018-12-20T21:00:09.677Z,21.43
2018-12-20T21:02:38.278Z,24.37
2018-12-20T21:05:08.134Z,23.03
2018-12-20T21:07:36.788Z,23.53
2018-12-20T21:10:10.666Z,23.73
2018-12-20T21:12:39.258Z,21.90
2018-12-20T21:15:10.225Z,26.90
2018-12-20T21:17:40.102Z,22.83
2018-12-20T21:20:11.413Z,26.33
2018-12-20T21:22:40.080Z,27.97
2018-12-20T21:25:08.619Z,26.93
2018-12-20T21:27:37.221Z,24.73
2018-12-20T21:30:07.566Z,24.80
2018-12-20T21:32:36.080Z,23.77
2018-12-20T21:35:05.760Z,22.43
2018-12-20T21:37:34.367Z,26.93
2018-12-20T21:40:05.186Z,28.27
2018-12-20T21:42:33.687Z,24.80
2018-12-20T21:45:03.803Z,22.13
2018-12-20T21:47:32.333Z,27.10
2018-12-20T21:50:00.892Z,22.53
2018-12-20T21:52:29.385Z,24.13
2018-12-20T21:54:58.328Z,21.43
2018-12-20T21:57:26.916Z,20.27
2018-12-20T22:00:01.149Z,20.77
2018-12-20T22:02:25.957Z,22.43
2018-12-20T22:04:54.586Z,24.30
2018-12-20T22:07:23.281Z,20.83
2018-12-20T22:09:51.806Z,17.80
2018-12-20T22:12:20.287Z,23.10
2018-12-20T22:14:48.795Z,20.53
2018-12-20T22:17:17.720Z,20.60
2018-12-20T22:19:46.222Z,18.47
2018-12-20T22:22:14.720Z,21.57
2018-12-20T22:24:43.267Z,21.67
2018-12-20T22:27:11.767Z,22.97
2018-12-20T22:29:40.453Z,19.17
2018-12-20T22:32:08.961Z,21.27
2018-12-20T22:34:37.442Z,19.27
2018-12-20T22:37:06.705Z,20.97
2018-12-20T22:39:35.182Z,20.10
2018-12-20T22:42:05.423Z,21.83
2018-12-20T22:44:33.904Z,18.63
2018-12-20T22:47:03.772Z,20.47
2018-12-20T22:49:32.296Z,14.70
2018-12-20T22:52:00.784Z,20.37
2018-12-20T22:54:29.243Z,15.73
2018-12-20T22:56:57.751Z,18.37
2018-12-20T22:59:26.497Z,15.37
2018-12-20T23:01:55.900Z,16.90
2018-12-20T23:04:24.478Z,14.80
2018-12-20T23:06:53.928Z,14.90
2018-12-20T23:09:22.455Z,19.40
2018-12-20T23:11:50.919Z,13.77
2018-12-20T23:14:19.663Z,10.10
2018-12-20T23:16:53.637Z,16.50
2018-12-20T23:19:18.654Z,14.13
2018-12-20T23:21:47.151Z,14.73
2018-12-20T23:24:15.650Z,16.43
2018-12-20T23:26:44.332Z,12.37
2018-12-20T23:29:13.026Z,15.93
2018-12-20T23:31:41.668Z,9.57
2018-12-20T23:34:10.150Z,15.67
2018-12-20T23:36:38.817Z,16.20
2018-12-20T23:39:07.779Z,13.03
2018-12-20T23:41:36.699Z,12.03
2018-12-20T23:44:07.218Z,12.20
2018-12-20T23:46:35.679Z,13.03
2018-12-20T23:49:05.588Z,13.23
2018-12-20T23:51:34.081Z,14.80
2018-12-20T23:54:04.491Z,11.80
2018-12-20T23:56:33.169Z,11.90
2018-12-20T23:59:03.919Z,12.33
